createdAt,value
2018-07-12T00:01:41.228Z,100561.52
2018-07-12T00:04:08.359Z,100557.35
2018-07-12T00:06:35.442Z,100556.36
2018-07-12T00:09:02.566Z,100566.91
2018-07-12T00:11:29.680Z,100569.10
2018-07-12T00:13:56.820Z,100571.08
2018-07-12T00:16:23.985Z,100561.52
2018-07-12T00:18:51.191Z,100559.73
2018-07-12T00:21:18.377Z,100559.14
2018-07-12T00:23:45.487Z,100564.89
2018-07-12T00:26:12.567Z,100558.92
2018-07-12T00:28:39.679Z,100558.16
2018-07-12T00:31:06.806Z,100559.14
2018-07-12T00:33:33.918Z,100554.57
2018-07-12T00:36:01.032Z,100552.59
2018-07-12T00:38:28.222Z,100548.64
2018-07-12T00:40:55.365Z,100546.48
2018-07-12T00:43:22.531Z,100546.69
2018-07-12T00:45:49.826Z,100543.51
2018-07-12T00:48:17.038Z,100544.28
2018-07-12T00:50:44.118Z,100538.94
2018-07-12T00:53:11.222Z,100539.92
2018-07-12T00:55:38.303Z,100541.90
2018-07-12T00:58:05.401Z,100537.55
2018-07-12T01:00:32.815Z,100541.28
2018-07-12T01:02:59.895Z,100544.68
2018-07-12T01:05:27.019Z,100542.05
2018-07-12T01:07:54.143Z,100542.27
2018-07-12T01:10:21.253Z,100541.87
2018-07-12T01:12:48.337Z,100542.45
2018-07-12T01:15:15.515Z,100544.43
2018-07-12T01:17:42.556Z,100544.03
2018-07-12T01:20:09.664Z,100539.27
2018-07-12T01:22:36.784Z,100538.25
2018-07-12T01:25:03.863Z,100540.84
2018-07-12T01:27:31.006Z,100545.61
2018-07-12T01:29:58.077Z,100536.05
2018-07-12T01:32:25.223Z,100543.59
2018-07-12T01:34:52.308Z,100536.57
2018-07-12T01:37:19.429Z,100548.50
2018-07-12T01:39:46.506Z,100546.46
2018-07-12T01:42:13.578Z,100551.22
2018-07-12T01:44:40.675Z,100548.17
2018-07-12T01:47:07.787Z,100554.55
2018-07-12T01:49:34.871Z,100553.34
2018-07-12T01:52:01.980Z,100551.40
2018-07-12T01:54:29.059Z,100555.39
2018-07-12T01:56:56.140Z,100557.19
2018-07-12T01:59:23.220Z,100545.28
2018-07-12T02:01:50.314Z,100544.11
2018-07-12T02:04:17.417Z,100542.72
2018-07-12T02:06:44.499Z,100545.72
2018-07-12T02:09:11.591Z,100547.91
2018-07-12T02:11:38.976Z,100542.94
2018-07-12T02:14:06.108Z,100540.74
2018-07-12T02:16:33.191Z,100537.53
2018-07-12T02:19:00.321Z,100536.06
2018-07-12T02:21:27.395Z,100535.00
2018-07-12T02:23:56.170Z,100534.20
2018-07-12T02:26:23.262Z,100532.63
2018-07-12T02:28:50.332Z,100532.00
2018-07-12T02:31:17.429Z,100528.20
2018-07-12T02:33:44.526Z,100528.97
2018-07-12T02:36:11.710Z,100521.61
2018-07-12T02:38:38.788Z,100531.13
2018-07-12T02:41:05.910Z,100520.98
2018-07-12T02:43:33.061Z,100519.19
2018-07-12T02:46:00.148Z,100521.75
2018-07-12T02:48:27.268Z,100520.14
2018-07-12T02:50:54.307Z,100522.52
2018-07-12T02:53:21.380Z,100524.67
2018-07-12T02:55:48.768Z,100525.84
2018-07-12T02:58:15.848Z,100534.54
2018-07-12T03:00:43.028Z,100535.89
2018-07-12T03:03:10.404Z,100541.03
2018-07-12T03:05:37.641Z,100537.67
2018-07-12T03:08:04.725Z,100541.63
2018-07-12T03:10:32.059Z,100541.22
2018-07-12T03:12:59.160Z,100547.86
2018-07-12T03:15:26.243Z,100548.03
2018-07-12T03:17:53.341Z,100543.50
2018-07-12T03:20:20.448Z,100537.36
2018-07-12T03:22:47.567Z,100544.67
2018-07-12T03:25:15.099Z,100543.28
2018-07-12T03:27:42.204Z,100542.70
2018-07-12T03:30:09.312Z,100538.13
2018-07-12T03:32:36.407Z,100536.73
2018-07-12T03:35:03.505Z,100545.30
2018-07-12T03:37:30.599Z,100539.38
2018-07-12T03:39:57.711Z,100542.92
2018-07-12T03:42:24.830Z,100544.17
2018-07-12T03:44:51.941Z,100545.16
2018-07-12T03:47:19.211Z,100546.19
2018-07-12T03:49:46.307Z,100543.42
2018-07-12T03:52:13.407Z,100543.64
2018-07-12T03:54:40.502Z,100542.88
2018-07-12T03:57:07.579Z,100539.33
2018-07-12T03:59:34.792Z,100540.77
2018-07-12T04:02:01.868Z,100545.73
2018-07-12T04:04:28.962Z,100536.63
2018-07-12T04:06:56.064Z,100554.27
2018-07-12T04:09:23.155Z,100552.51
2018-07-12T04:11:50.281Z,100546.77
2018-07-12T04:14:17.628Z,100552.73
2018-07-12T04:16:44.752Z,100551.56
2018-07-12T04:19:11.836Z,100553.58
2018-07-12T04:21:39.111Z,100550.58
2018-07-12T04:24:06.202Z,100551.92
2018-07-12T04:26:33.288Z,100557.67
2018-07-12T04:29:00.498Z,100568.79
2018-07-12T04:31:27.707Z,100563.59
2018-07-12T04:33:54.864Z,100561.84
2018-07-12T04:36:22.071Z,100562.16
2018-07-12T04:38:49.341Z,100559.83
2018-07-12T04:41:16.440Z,100565.25
2018-07-12T04:43:43.604Z,100567.89
2018-07-12T04:46:10.703Z,100573.30
2018-07-12T04:48:37.828Z,100577.96
2018-07-12T04:51:04.933Z,100586.37
2018-07-12T04:53:32.000Z,100587.22
2018-07-12T04:55:59.146Z,100587.84
2018-07-12T04:58:26.302Z,100586.30
2018-07-12T05:00:53.391Z,100589.52
2018-07-12T05:03:20.519Z,100592.93
2018-07-12T05:05:47.653Z,100591.94
2018-07-12T05:08:14.801Z,100591.36
2018-07-12T05:10:41.839Z,100589.16
2018-07-12T05:13:08.952Z,100592.34
2018-07-12T05:15:36.045Z,100589.81
2018-07-12T05:18:03.152Z,100584.69
2018-07-12T05:20:30.258Z,100583.70
2018-07-12T05:22:57.344Z,100584.10
2018-07-12T05:25:24.565Z,100592.02
2018-07-12T05:27:51.819Z,100591.42
2018-07-12T05:30:18.992Z,100599.63
2018-07-12T05:32:46.119Z,100605.59
2018-07-12T05:35:13.217Z,100599.88
2018-07-12T05:37:41.260Z,100611.27
2018-07-12T05:40:09.658Z,100610.88
2018-07-12T05:42:37.723Z,100614.23
2018-07-12T05:45:05.868Z,100611.53
2018-07-12T05:47:33.956Z,100615.73
2018-07-12T05:50:02.033Z,100609.70
2018-07-12T05:52:31.015Z,100612.15
2018-07-12T05:54:59.172Z,100611.59
2018-07-12T05:57:27.283Z,100608.01
2018-07-12T05:59:55.316Z,100615.61
2018-07-12T06:02:24.559Z,100619.05
2018-07-12T06:04:52.611Z,100623.32
2018-07-12T06:07:25.970Z,100621.77
2018-07-12T06:09:54.117Z,100626.40
2018-07-12T06:12:22.179Z,100630.02
2018-07-12T06:14:50.737Z,100625.28
2018-07-12T06:17:18.866Z,100627.69
2018-07-12T06:19:47.208Z,100629.34
2018-07-12T06:22:15.480Z,100625.82
2018-07-12T06:24:43.567Z,100623.66
2018-07-12T06:27:13.528Z,100624.31
2018-07-12T06:29:41.565Z,100629.14
2018-07-12T06:32:09.645Z,100625.97
2018-07-12T06:34:37.706Z,100624.17
2018-07-12T06:37:05.826Z,100624.00
2018-07-12T06:39:33.860Z,100624.81
2018-07-12T06:42:01.964Z,100628.23
2018-07-12T06:44:30.248Z,100635.47
2018-07-12T06:46:58.298Z,100629.12
2018-07-12T06:49:26.371Z,100634.25
2018-07-12T06:51:54.441Z,100633.44
2018-07-12T06:54:22.502Z,100634.55
2018-07-12T06:56:50.595Z,100630.88
2018-07-12T06:59:18.644Z,100632.63
2018-07-12T07:01:46.744Z,100625.14
2018-07-12T07:04:14.797Z,100623.58
2018-07-12T07:06:42.864Z,100623.06
2018-07-12T07:09:11.615Z,100623.10
2018-07-12T07:11:39.924Z,100616.87
2018-07-12T07:14:08.223Z,100624.27
2018-07-12T07:16:36.703Z,100625.70
2018-07-12T07:19:04.752Z,100632.48
2018-07-12T07:21:33.678Z,100630.82
2018-07-12T07:24:01.692Z,100634.55
2018-07-12T07:26:29.753Z,100631.06
2018-07-12T07:28:57.800Z,100629.42
2018-07-12T07:31:25.856Z,100622.53
2018-07-12T07:33:53.936Z,100625.88
2018-07-12T07:36:22.016Z,100629.23
2018-07-12T07:38:50.107Z,100629.47
2018-07-12T07:41:18.179Z,100631.20
2018-07-12T07:43:46.246Z,100627.02
2018-07-12T07:46:14.346Z,100619.73
2018-07-12T07:48:42.395Z,100616.44
2018-07-12T07:51:10.459Z,100618.40
2018-07-12T07:53:38.611Z,100619.44
2018-07-12T07:56:06.736Z,100623.07
2018-07-12T07:58:34.869Z,100618.64
2018-07-12T08:01:02.971Z,100626.79
2018-07-12T08:03:31.025Z,100619.95
2018-07-12T08:05:59.088Z,100623.87
2018-07-12T08:08:27.224Z,100626.46
2018-07-12T08:10:55.517Z,100626.66
2018-07-12T08:13:23.692Z,100638.96
2018-07-12T08:15:51.844Z,100629.41
2018-07-12T08:18:19.917Z,100629.66
2018-07-12T08:20:48.001Z,100626.91
2018-07-12T08:23:16.045Z,100626.83
2018-07-12T08:25:44.239Z,100624.36
2018-07-12T08:28:21.743Z,100623.39
2018-07-12T08:30:49.987Z,100623.56
2018-07-12T08:33:18.070Z,100622.75
2018-07-12T08:35:46.129Z,100614.52
2018-07-12T08:38:14.567Z,100616.13
2018-07-12T08:40:43.443Z,100609.89
2018-07-12T08:43:11.848Z,100612.38
2018-07-12T08:45:39.916Z,100612.20
2018-07-12T08:48:08.574Z,100620.91
2018-07-12T08:50:36.619Z,100621.14
2018-07-12T08:53:04.714Z,100620.23
2018-07-12T08:55:32.852Z,100613.69
2018-07-12T08:58:00.936Z,100616.06
2018-07-12T09:00:29.070Z,100611.30
2018-07-12T09:02:57.245Z,100616.20
2018-07-12T09:05:25.289Z,100617.70
2018-07-12T09:07:55.364Z,100609.61
2018-07-12T09:10:23.468Z,100615.71
2018-07-12T09:12:51.829Z,100616.10
2018-07-12T09:15:19.885Z,100620.53
2018-07-12T09:17:49.636Z,100620.25
2018-07-12T09:20:17.708Z,100616.89
2018-07-12T09:22:47.533Z,100619.63
2018-07-12T09:25:17.252Z,100626.08
2018-07-12T09:27:45.939Z,100624.19
2018-07-12T09:30:14.122Z,100631.00
2018-07-12T09:32:42.189Z,100622.92
2018-07-12T09:35:10.260Z,100627.68
2018-07-12T09:37:38.620Z,100629.27
2018-07-12T09:40:06.686Z,100627.63
2018-07-12T09:42:35.353Z,100626.50
2018-07-12T09:45:03.629Z,100624.08
2018-07-12T09:47:31.698Z,100628.19
2018-07-12T09:49:59.861Z,100625.15
2018-07-12T09:52:32.443Z,100634.83
2018-07-12T09:55:01.432Z,100626.34
2018-07-12T09:57:41.199Z,100621.05
2018-07-12T10:00:09.251Z,100621.30
2018-07-12T10:02:42.995Z,100614.44
2018-07-12T10:06:14.675Z,100614.39
2018-07-12T10:08:48.044Z,100620.32
2018-07-12T10:11:21.843Z,100621.30
2018-07-12T10:13:55.151Z,100622.41
2018-07-12T10:16:28.499Z,100631.34
2018-07-12T10:18:56.527Z,100628.84
2018-07-12T10:21:24.605Z,100623.11
2018-07-12T10:23:53.244Z,100625.60
2018-07-12T10:26:21.296Z,100628.56
2018-07-12T10:28:49.383Z,100636.56
2018-07-12T10:31:17.447Z,100622.36
2018-07-12T10:33:45.516Z,100628.70
2018-07-12T10:36:13.625Z,100620.51
2018-07-12T10:38:41.698Z,100617.18
2018-07-12T10:41:09.745Z,100614.97
2018-07-12T10:43:37.838Z,100616.05
2018-07-12T10:46:05.988Z,100620.52
2018-07-12T10:48:34.088Z,100617.08
2018-07-12T10:51:02.180Z,100611.54
2018-07-12T10:53:30.403Z,100616.49
2018-07-12T10:55:58.536Z,100618.07
2018-07-12T10:58:27.292Z,100613.34
2018-07-12T11:00:55.480Z,100613.56
2018-07-12T11:03:23.696Z,100605.71
2018-07-12T11:05:52.017Z,100608.24
2018-07-12T11:08:20.210Z,100602.03
2018-07-12T11:10:48.873Z,100606.75
2018-07-12T11:13:19.525Z,100610.05
2018-07-12T11:15:48.396Z,100607.45
2018-07-12T11:18:16.664Z,100607.75
2018-07-12T11:20:45.386Z,100602.37
2018-07-12T11:23:13.472Z,100592.98
2018-07-12T11:25:41.544Z,100598.81
2018-07-12T11:28:09.640Z,100597.59
2018-07-12T11:30:37.680Z,100602.20
2018-07-12T11:33:45.278Z,100588.85
2018-07-12T11:36:14.579Z,100599.66
2018-07-12T11:38:43.963Z,100596.81
2018-07-12T11:41:12.254Z,100595.83
2018-07-12T11:43:40.371Z,100594.59
2018-07-12T11:46:09.660Z,100595.48
2018-07-12T11:48:39.855Z,100590.17
2018-07-12T11:51:07.900Z,100600.23
2018-07-12T11:53:35.960Z,100599.17
2018-07-12T11:56:04.044Z,100592.50
2018-07-12T11:58:32.122Z,100587.70
2018-07-12T12:01:01.077Z,100595.70
2018-07-12T12:03:29.672Z,100583.03
2018-07-12T12:05:57.909Z,100585.31
2018-07-12T12:08:26.566Z,100589.11
2018-07-12T12:10:54.979Z,100589.20
2018-07-12T12:13:23.461Z,100594.44
2018-07-12T12:15:51.819Z,100595.82
2018-07-12T12:18:20.164Z,100603.22
2018-07-12T12:20:48.568Z,100610.41
2018-07-12T12:23:16.784Z,100607.36
2018-07-12T12:25:44.981Z,100613.92
2018-07-12T12:28:13.075Z,100608.13
2018-07-12T12:30:41.949Z,100600.13
2018-07-12T12:33:09.995Z,100591.06
2018-07-12T12:35:38.119Z,100593.16
2018-07-12T12:38:06.175Z,100598.27
2018-07-12T12:40:34.392Z,100590.96
2018-07-12T12:43:02.666Z,100596.88
2018-07-12T12:45:30.928Z,100593.42
2018-07-12T12:48:05.774Z,100592.55
2018-07-12T12:50:33.851Z,100597.05
2018-07-12T12:53:02.397Z,100593.90
2018-07-12T12:55:30.590Z,100599.19
2018-07-12T12:57:58.867Z,100602.23
2018-07-12T13:00:27.105Z,100603.03
2018-07-12T13:02:55.723Z,100603.53
2018-07-12T13:05:24.129Z,100595.61
2018-07-12T13:07:52.603Z,100594.58
2018-07-12T13:10:21.242Z,100595.98
2018-07-12T13:12:49.670Z,100601.72
2018-07-12T13:15:17.944Z,100600.05
2018-07-12T13:17:46.054Z,100609.23
2018-07-12T13:20:14.157Z,100617.95
2018-07-12T13:22:42.231Z,100620.50
2018-07-12T13:25:10.312Z,100614.85
2018-07-12T13:27:38.590Z,100617.66
2018-07-12T13:30:06.722Z,100615.64
2018-07-12T13:32:34.804Z,100610.59
2018-07-12T13:35:02.876Z,100610.14
2018-07-12T13:37:30.978Z,100606.16
2018-07-12T13:39:59.075Z,100605.94
2018-07-12T13:42:27.144Z,100612.14
2018-07-12T13:44:55.225Z,100610.94
2018-07-12T13:47:23.304Z,100606.73
2018-07-12T13:49:51.401Z,100603.95
2018-07-12T13:52:19.471Z,100617.66
2018-07-12T13:54:47.532Z,100604.47
2018-07-12T13:57:15.608Z,100608.16
2018-07-12T13:59:43.704Z,100603.91
2018-07-12T14:02:12.032Z,100598.18
2018-07-12T14:04:40.080Z,100603.72
2018-07-12T14:07:08.175Z,100602.06
2018-07-12T14:09:36.531Z,100599.33
2018-07-12T14:12:04.589Z,100603.52
2018-07-12T14:14:32.627Z,100597.48
2018-07-12T14:17:00.677Z,100599.08
2018-07-12T14:19:28.725Z,100592.66
2018-07-12T14:21:56.809Z,100595.30
2018-07-12T14:24:24.923Z,100596.98
2018-07-12T14:26:52.982Z,100596.81
2018-07-12T14:29:21.076Z,100602.86
2018-07-12T14:31:49.151Z,100603.67
2018-07-12T14:34:17.219Z,100610.42
2018-07-12T14:36:45.613Z,100607.92
2018-07-12T14:39:13.768Z,100609.67
2018-07-12T14:41:42.057Z,100607.73
2018-07-12T14:44:10.151Z,100608.16
2018-07-12T14:46:38.210Z,100606.25
2018-07-12T14:49:06.260Z,100605.42
2018-07-12T14:51:34.315Z,100608.23
2018-07-12T14:54:02.528Z,100609.38
2018-07-12T14:56:30.697Z,100604.64
2018-07-12T14:58:58.835Z,100612.31
2018-07-12T15:01:27.062Z,100617.03
2018-07-12T15:03:55.238Z,100623.95
2018-07-12T15:06:23.583Z,100628.91
2018-07-12T15:08:52.115Z,100626.98
2018-07-12T15:11:20.364Z,100631.04
2018-07-12T15:13:48.775Z,100637.48
2018-07-12T15:16:16.821Z,100646.17
2018-07-12T15:18:44.881Z,100634.18
2018-07-12T15:21:12.963Z,100637.34
2018-07-12T15:23:41.268Z,100641.64
2018-07-12T15:26:09.333Z,100632.71
2018-07-12T15:28:37.380Z,100631.77
2018-07-12T15:31:05.809Z,100633.42
2018-07-12T15:33:33.854Z,100627.75
2018-07-12T15:36:01.900Z,100626.34
2018-07-12T15:38:30.008Z,100633.56
2018-07-12T15:40:58.071Z,100632.33
2018-07-12T15:43:26.134Z,100631.60
2018-07-12T15:45:54.187Z,100636.13
2018-07-12T15:48:22.241Z,100637.48
2018-07-12T15:50:50.307Z,100636.18
2018-07-12T15:53:19.351Z,100638.58
2018-07-12T15:55:47.459Z,100635.62
2018-07-12T15:58:15.777Z,100633.27
2018-07-12T16:00:43.807Z,100637.79
2018-07-12T16:03:11.948Z,100633.69
2018-07-12T16:05:40.132Z,100630.08
2018-07-12T16:08:08.183Z,100634.28
2018-07-12T16:10:36.251Z,100630.31
2018-07-12T16:13:05.676Z,100627.05
2018-07-12T16:15:33.744Z,100618.78
2018-07-12T16:18:02.671Z,100619.98
2018-07-12T16:20:30.760Z,100618.92
2018-07-12T16:22:58.943Z,100624.59
2018-07-12T16:25:27.249Z,100618.53
2018-07-12T16:27:55.587Z,100621.88
2018-07-12T16:30:23.916Z,100619.14
2018-07-12T16:32:52.343Z,100619.63
2018-07-12T16:35:20.812Z,100624.88
2018-07-12T16:37:49.058Z,100622.63
2018-07-12T16:40:17.867Z,100627.20
2018-07-12T16:42:45.951Z,100622.38
2018-07-12T16:45:14.009Z,100624.68
2018-07-12T16:47:42.068Z,100621.52
2018-07-12T16:50:10.107Z,100612.42
2018-07-12T16:52:38.175Z,100615.15
2018-07-12T16:55:06.207Z,100624.52
2018-07-12T16:57:34.244Z,100619.45
2018-07-12T17:00:02.299Z,100620.37
2018-07-12T17:02:30.355Z,100614.88
2018-07-12T17:04:58.820Z,100620.23
2018-07-12T17:07:26.862Z,100621.22
2018-07-12T17:09:55.511Z,100621.17
2018-07-12T17:12:24.010Z,100629.95
2018-07-12T17:14:52.274Z,100630.52
2018-07-12T17:17:21.254Z,100629.00
2018-07-12T17:19:49.410Z,100632.11
2018-07-12T17:22:17.681Z,100638.34
2018-07-12T17:24:45.872Z,100636.73
2018-07-12T17:27:13.940Z,100628.17
2018-07-12T17:29:42.013Z,100633.95
2018-07-12T17:32:10.085Z,100629.74
2018-07-12T17:34:38.172Z,100628.89
2018-07-12T17:37:06.326Z,100631.70
2018-07-12T17:39:40.975Z,100631.30
2018-07-12T17:42:09.014Z,100628.24
2018-07-12T17:44:37.074Z,100629.94
2018-07-12T17:47:05.523Z,100625.77
2018-07-12T17:49:33.572Z,100625.97
2018-07-12T17:52:01.646Z,100632.98
2018-07-12T17:54:29.708Z,100636.16
2018-07-12T17:56:57.765Z,100639.33
2018-07-12T17:59:25.816Z,100630.50
2018-07-12T18:01:53.908Z,100634.91
2018-07-12T18:04:21.965Z,100641.28
2018-07-12T18:06:50.016Z,100635.26
2018-07-12T18:09:18.087Z,100642.48
2018-07-12T18:11:46.176Z,100639.03
2018-07-12T18:14:14.297Z,100642.23
2018-07-12T18:16:42.346Z,100641.80
2018-07-12T18:19:10.448Z,100644.00
2018-07-12T18:21:38.550Z,100643.20
2018-07-12T18:24:06.631Z,100638.98
2018-07-12T18:26:34.742Z,100645.00
2018-07-12T18:29:02.838Z,100642.35
2018-07-12T18:31:30.910Z,100643.59
2018-07-12T18:33:58.951Z,100643.75
2018-07-12T18:36:27.538Z,100642.55
2018-07-12T18:38:55.574Z,100652.78
2018-07-12T18:41:23.756Z,100647.80
2018-07-12T18:43:51.780Z,100647.41
2018-07-12T18:46:19.840Z,100652.47
2018-07-12T18:48:48.333Z,100653.92
2018-07-12T18:51:16.403Z,100648.98
2018-07-12T18:53:44.435Z,100654.05
2018-07-12T18:56:13.260Z,100659.09
2018-07-12T18:58:41.304Z,100657.37
2018-07-12T19:01:09.485Z,100654.66
2018-07-12T19:03:38.097Z,100656.49
2018-07-12T19:06:06.211Z,100662.39
2018-07-12T19:08:34.353Z,100666.64
2018-07-12T19:11:02.765Z,100665.48
2018-07-12T19:13:30.872Z,100660.47
2018-07-12T19:15:58.945Z,100666.55
2018-07-12T19:18:27.450Z,100664.98
2018-07-12T19:20:55.520Z,100664.86
2018-07-12T19:23:23.612Z,100666.50
2018-07-12T19:25:51.916Z,100667.94
2018-07-12T19:28:19.976Z,100676.80
2018-07-12T19:30:48.070Z,100678.83
2018-07-12T19:33:16.312Z,100671.33
2018-07-12T19:35:44.391Z,100677.39
2018-07-12T19:38:12.470Z,100677.66
2018-07-12T19:40:40.533Z,100683.91
2018-07-12T19:43:08.671Z,100677.79
2018-07-12T19:45:36.784Z,100685.66
2018-07-12T19:48:05.143Z,100681.71
2018-07-12T19:50:33.525Z,100683.00
2018-07-12T19:53:01.612Z,100692.66
2018-07-12T19:55:30.048Z,100697.31
2018-07-12T19:57:58.254Z,100694.76
2018-07-12T20:00:26.556Z,100696.80
2018-07-12T20:02:55.206Z,100694.84
2018-07-12T20:05:23.491Z,100708.89
2018-07-12T20:07:52.511Z,100709.34
2018-07-12T20:10:21.173Z,100712.60
2018-07-12T20:12:49.455Z,100706.44
2018-07-12T20:15:17.767Z,100718.28
2018-07-12T20:17:46.081Z,100724.70
2018-07-12T20:20:14.640Z,100725.31
2018-07-12T20:22:42.731Z,100727.32
2018-07-12T20:25:10.835Z,100726.73
2018-07-12T20:27:38.893Z,100731.97
2018-07-12T20:30:07.585Z,100732.19
2018-07-12T20:32:35.636Z,100730.58
2018-07-12T20:35:03.688Z,100727.61
2018-07-12T20:37:32.056Z,100732.41
2018-07-12T20:40:00.251Z,100736.99
2018-07-12T20:42:28.405Z,100734.63
2018-07-12T20:44:56.951Z,100736.84
2018-07-12T20:47:25.393Z,100748.64
2018-07-12T20:49:53.768Z,100748.84
2018-07-12T20:52:22.416Z,100748.86
2018-07-12T20:54:50.978Z,100750.66
2018-07-12T20:57:19.289Z,100752.91
2018-07-12T20:59:47.452Z,100759.09
2018-07-12T21:02:15.663Z,100759.73
2018-07-12T21:04:43.736Z,100769.14
2018-07-12T21:07:11.881Z,100772.94
2018-07-12T21:09:41.114Z,100765.15
2018-07-12T21:12:09.159Z,100770.35
2018-07-12T21:14:37.406Z,100775.56
2018-07-12T21:17:05.472Z,100773.95
2018-07-12T21:19:33.592Z,100772.37
2018-07-12T21:22:02.218Z,100780.16
2018-07-12T21:24:30.327Z,100776.16
2018-07-12T21:26:58.575Z,100777.55
2018-07-12T21:29:26.799Z,100781.91
2018-07-12T21:31:55.487Z,100784.10
2018-07-12T21:34:23.862Z,100783.31
2018-07-12T21:36:52.355Z,100791.09
2018-07-12T21:39:20.831Z,100790.28
2018-07-12T21:41:49.287Z,100786.50
2018-07-12T21:44:17.875Z,100792.07
2018-07-12T21:46:46.178Z,100790.48
2018-07-12T21:49:14.399Z,100792.67
2018-07-12T21:51:42.531Z,100794.64
2018-07-12T21:54:10.591Z,100797.84
2018-07-12T21:56:38.759Z,100800.19
2018-07-12T21:59:06.814Z,100799.99
2018-07-12T22:01:34.892Z,100798.19
2018-07-12T22:04:03.000Z,100799.19
2018-07-12T22:07:41.444Z,100800.75
2018-07-12T22:10:09.862Z,100801.53
2018-07-12T22:12:37.912Z,100799.31
2018-07-12T22:15:05.987Z,100803.67
2018-07-12T22:17:34.059Z,100797.30
2018-07-12T22:20:02.175Z,100802.23
2018-07-12T22:22:30.575Z,100802.00
2018-07-12T22:24:58.796Z,100803.37
2018-07-12T22:27:27.002Z,100809.57
2018-07-12T22:29:55.324Z,100811.13
2018-07-12T22:32:23.702Z,100812.50
2018-07-12T22:34:52.069Z,100808.30
2018-07-12T22:37:20.411Z,100808.27
2018-07-12T22:39:48.725Z,100813.23
2018-07-12T22:42:17.173Z,100817.23
2018-07-12T22:44:45.248Z,100820.80
2018-07-12T22:47:13.279Z,100820.19
2018-07-12T22:49:41.354Z,100820.53
2018-07-12T22:52:09.444Z,100823.69
2018-07-12T22:54:37.536Z,100815.70
2018-07-12T22:57:05.596Z,100816.05
2018-07-12T22:59:33.660Z,100813.82
2018-07-12T23:02:01.853Z,100808.61
2018-07-12T23:04:30.084Z,100808.18
2018-07-12T23:06:58.374Z,100812.11
2018-07-12T23:09:26.821Z,100810.28
2018-07-12T23:11:55.086Z,100809.26
2018-07-12T23:14:23.537Z,100814.14
2018-07-12T23:16:51.954Z,100813.70
2018-07-12T23:19:21.260Z,100807.69
2018-07-12T23:21:49.672Z,100811.83
2018-07-12T23:24:17.767Z,100807.39
2018-07-12T23:26:46.828Z,100802.77
2018-07-12T23:29:14.891Z,100811.52
2018-07-12T23:31:42.964Z,100810.90
2018-07-12T23:34:11.036Z,100808.29
2018-07-12T23:36:39.094Z,100804.88
2018-07-12T23:39:07.656Z,100806.05
2018-07-12T23:41:35.757Z,100810.78
2018-07-12T23:44:03.844Z,100807.00
2018-07-12T23:46:32.021Z,100819.89
2018-07-12T23:49:00.184Z,100809.69
2018-07-12T23:51:28.424Z,100817.46
2018-07-12T23:53:56.700Z,100817.05
2018-07-12T23:56:25.064Z,100820.83
2018-07-12T23:58:53.576Z,100822.63
